Terminal Aerodrome Forecast
Issued by NWS

Home | Current Version | Previous Version | Text Only | Print | Product List | Glossary On
Versions: 1 2 3 4 5 6 7 8 9 10 11 12
000
FTUS45 KVEF 301100
TAFDAG
TAF
KDAG 301120Z 3012/3112 VRB04KT P6SM SCT250
     FM302000 07007KT P6SM BKN250
     FM310100 VRB04KT P6SM SCT250
     FM310400 26006KT P6SM FEW250=

USA.gov is the U.S. government's official web portal to all federal, state and local government web resources and services.